Time;durP1;ratioP1;P1;durP2;ratioP2;P2;SDS_P1;SDS_P2;PMS_P1;PMS_P2;Temp;Humidity;BMP_temperature;BMP_pressure;BME280_temperature;BME280_humidity;BME280_pressure;Samples;Min_cycle;Max_cycle;Signal;HPM_P1;HPM_P2
2022/04/02 00:01:14;;;;;;;6.87;5.37;;;;;;;;;;5124108;28;20502;-64
2022/04/02 00:03:43;;;;;;;6.00;5.33;;;;;;;;;;5124591;28;20442;-64
2022/04/02 00:06:11;;;;;;;7.27;6.07;;;;;;;;;;5124514;28;20458;-64
2022/04/02 00:08:39;;;;;;;8.73;6.37;;;;;;;;;;5126022;27;20477;-64
2022/04/02 00:11:08;;;;;;;6.33;5.67;;;;;;;;;;5124482;28;20506;-64
2022/04/02 00:13:38;;;;;;;7.90;6.20;;;;;;;;;;5120414;28;20968;-64
2022/04/02 00:16:07;;;;;;;7.30;6.60;;;;;;;;;;5123723;28;20458;-64
2022/04/02 00:18:35;;;;;;;8.43;5.83;;;;;;;;;;5123979;28;20478;-65
2022/04/02 00:21:03;;;;;;;9.00;7.17;;;;;;;;;;5124100;28;20435;-64
2022/04/02 00:23:39;;;;;;;7.47;6.20;;;;;;;;;;5123241;28;20482;-64
2022/04/02 00:26:10;;;;;;;8.60;7.63;;;;;;;;;;5120124;27;20818;-64
2022/04/02 00:28:39;;;;;;;8.77;7.10;;;;;;;;;;5120345;27;20450;-64
2022/04/02 00:31:08;;;;;;;9.57;7.53;;;;;;;;;;5120795;28;20463;-65
2022/04/02 00:33:37;;;;;;;9.20;7.07;;;;;;;;;;5121109;28;20507;-64
2022/04/02 00:36:06;;;;;;;10.00;8.03;;;;;;;;;;5120401;28;20534;-64
2022/04/02 00:38:34;;;;;;;8.37;6.73;;;;;;;;;;5119604;28;20482;-64
2022/04/02 00:41:02;;;;;;;8.10;6.43;;;;;;;;;;5110353;27;20458;-64
2022/04/02 00:43:32;;;;;;;13.30;7.87;;;;;;;;;;5120302;28;20481;-64
2022/04/02 00:46:02;;;;;;;8.23;7.13;;;;;;;;;;5120461;28;20866;-64
2022/04/02 00:48:30;;;;;;;9.67;7.70;;;;;;;;;;5120736;28;20447;-65
2022/04/02 00:51:00;;;;;;;12.07;8.23;;;;;;;;;;5120337;28;21003;-64
2022/04/02 00:53:30;;;;;;;12.73;8.10;;;;;;;;;;5119697;28;20455;-65
2022/04/02 00:55:59;;;;;;;9.70;7.93;;;;;;;;;;5120388;28;20546;-64
2022/04/02 00:58:27;;;;;;;11.93;8.70;;;;;;;;;;5114607;27;20565;-65
2022/04/02 01:00:56;;;;;;;10.33;7.73;;;;;;;;;;5119090;27;20505;-64
2022/04/02 01:03:27;;;;;;;10.23;8.33;;;;;;;;;;5120383;28;20442;-64
2022/04/02 01:05:55;;;;;;;9.37;8.23;;;;;;;;;;5121953;28;20469;-64
2022/04/02 01:08:23;;;;;;;11.57;9.20;;;;;;;;;;5123955;28;20473;-64
2022/04/02 01:10:51;;;;;;;11.47;9.17;;;;;;;;;;5121560;28;20486;-64
2022/04/02 01:13:19;;;;;;;11.57;8.40;;;;;;;;;;5119297;27;20455;-64
2022/04/02 01:15:47;;;;;;;10.50;8.50;;;;;;;;;;5119732;28;20502;-64
2022/04/02 01:18:17;;;;;;;13.20;8.97;;;;;;;;;;5119589;28;20478;-64
2022/04/02 01:20:45;;;;;;;12.97;10.00;;;;;;;;;;5119684;28;20438;-64
2022/04/02 01:23:14;;;;;;;10.67;8.63;;;;;;;;;;5119461;28;20474;-64
2022/04/02 01:25:43;;;;;;;13.70;9.40;;;;;;;;;;5119723;28;20454;-64
2022/04/02 01:28:11;;;;;;;12.30;9.47;;;;;;;;;;5117617;28;20863;-64
2022/04/02 01:30:39;;;;;;;14.00;9.70;;;;;;;;;;5119553;28;20497;-64
2022/04/02 01:33:07;;;;;;;13.70;9.80;;;;;;;;;;5119997;28;20450;-64
2022/04/02 01:35:35;;;;;;;14.37;10.10;;;;;;;;;;5119275;28;20497;-64
2022/04/02 01:38:03;;;;;;;14.03;10.33;;;;;;;;;;5119163;28;20446;-64
2022/04/02 01:40:33;;;;;;;12.47;9.40;;;;;;;;;;5116625;27;20474;-64
2022/04/02 01:43:01;;;;;;;11.33;8.77;;;;;;;;;;5112193;28;20538;-64
2022/04/02 01:45:29;;;;;;;12.10;9.30;;;;;;;;;;5119246;28;20467;-64
2022/04/02 01:47:57;;;;;;;13.07;9.73;;;;;;;;;;5119296;28;20443;-64
2022/04/02 01:50:25;;;;;;;14.63;9.83;;;;;;;;;;5118578;28;20482;-64
2022/04/02 01:52:53;;;;;;;13.47;9.60;;;;;;;;;;5119426;28;20474;-64
2022/04/02 01:55:21;;;;;;;14.57;9.83;;;;;;;;;;5119339;28;20490;-64
2022/04/02 01:57:51;;;;;;;14.13;9.37;;;;;;;;;;5114162;27;20540;-64
2022/04/02 02:00:20;;;;;;;13.77;9.47;;;;;;;;;;5117686;28;20578;-64
2022/04/02 02:02:48;;;;;;;14.53;9.80;;;;;;;;;;5117168;27;20478;-64
2022/04/02 02:05:16;;;;;;;12.67;9.67;;;;;;;;;;5118800;28;20443;-64
2022/04/02 02:07:49;;;;;;;14.87;9.03;;;;;;;;;;5119012;28;21013;-64
2022/04/02 02:10:18;;;;;;;13.07;8.83;;;;;;;;;;5119121;28;20435;-64
2022/04/02 02:12:46;;;;;;;13.00;9.47;;;;;;;;;;5116694;28;20483;-64
2022/04/02 02:15:17;;;;;;;9.87;8.30;;;;;;;;;;5118634;28;20961;-64
2022/04/02 02:17:45;;;;;;;12.13;8.93;;;;;;;;;;5118984;28;20466;-64
2022/04/02 02:20:15;;;;;;;13.67;9.57;;;;;;;;;;5118751;28;20566;-64
2022/04/02 02:22:43;;;;;;;11.30;8.73;;;;;;;;;;5118515;28;20438;-64
2022/04/02 02:25:12;;;;;;;13.27;8.87;;;;;;;;;;5118702;28;20800;-64
2022/04/02 02:27:41;;;;;;;12.37;8.37;;;;;;;;;;5118638;28;20474;-64
2022/04/02 02:30:11;;;;;;;12.53;9.03;;;;;;;;;;5102550;28;20455;-64
2022/04/02 02:32:41;;;;;;;12.17;9.17;;;;;;;;;;5112635;28;20795;-64
2022/04/02 02:38:05;;;;;;;11.23;8.53;;;;;;;;;;5117887;28;20458;-64
2022/04/02 02:40:34;;;;;;;12.37;8.70;;;;;;;;;;5116768;28;20568;-64
2022/04/02 02:43:02;;;;;;;11.53;8.93;;;;;;;;;;5118271;28;20439;-64
2022/04/02 02:45:31;;;;;;;14.07;10.07;;;;;;;;;;5117578;28;20554;-64
2022/04/02 02:48:01;;;;;;;10.43;8.37;;;;;;;;;;5118156;28;20450;-64
2022/04/02 02:50:33;;;;;;;11.50;9.33;;;;;;;;;;5117777;28;20941;-64
2022/04/02 02:53:01;;;;;;;12.53;8.90;;;;;;;;;;5118198;28;20468;-64
2022/04/02 02:55:30;;;;;;;10.80;8.20;;;;;;;;;;5118322;28;20553;-64
2022/04/02 02:57:58;;;;;;;10.80;8.33;;;;;;;;;;5117744;28;20501;-64
2022/04/02 03:00:26;;;;;;;11.00;8.57;;;;;;;;;;5107179;28;20515;-64
2022/04/02 03:02:54;;;;;;;11.80;8.87;;;;;;;;;;5115092;28;20958;-64
2022/04/02 03:05:23;;;;;;;11.60;8.17;;;;;;;;;;5118102;28;20910;-64
2022/04/02 03:07:51;;;;;;;9.47;8.10;;;;;;;;;;5118147;28;20467;-64
2022/04/02 03:10:20;;;;;;;11.53;8.70;;;;;;;;;;5117933;28;20477;-64
2022/04/02 03:12:48;;;;;;;9.17;7.93;;;;;;;;;;5117695;28;20879;-64
2022/04/02 03:15:16;;;;;;;11.57;8.13;;;;;;;;;;5108909;28;20542;-64
2022/04/02 03:17:44;;;;;;;10.90;8.13;;;;;;;;;;5115383;28;20473;-64
2022/04/02 03:20:13;;;;;;;9.57;7.83;;;;;;;;;;5118051;28;20517;-64
2022/04/02 03:22:43;;;;;;;10.60;8.30;;;;;;;;;;5117974;28;20474;-64
2022/04/02 03:25:12;;;;;;;9.47;8.07;;;;;;;;;;5117807;28;20447;-64
2022/04/02 03:27:41;;;;;;;10.67;8.00;;;;;;;;;;5117357;28;20810;-64
2022/04/02 03:30:10;;;;;;;10.80;7.83;;;;;;;;;;5112900;28;20489;-64
2022/04/02 03:32:38;;;;;;;10.67;8.07;;;;;;;;;;5116064;28;20492;-64
2022/04/02 03:35:07;;;;;;;11.70;8.60;;;;;;;;;;5118010;28;20447;-64
2022/04/02 03:37:36;;;;;;;11.50;8.43;;;;;;;;;;5117691;28;20526;-64
2022/04/02 03:40:07;;;;;;;11.27;7.87;;;;;;;;;;5102831;28;20922;-64
2022/04/02 03:42:35;;;;;;;10.77;7.80;;;;;;;;;;5117609;28;20464;-64
2022/04/02 03:45:04;;;;;;;9.53;7.70;;;;;;;;;;5117428;28;20958;-64
2022/04/02 03:47:32;;;;;;;9.27;7.97;;;;;;;;;;5115691;28;20455;-64
2022/04/02 03:50:00;;;;;;;9.83;7.90;;;;;;;;;;5117849;28;20466;-64
2022/04/02 03:52:28;;;;;;;11.93;8.77;;;;;;;;;;5117825;28;20470;-64
2022/04/02 03:54:56;;;;;;;9.10;7.93;;;;;;;;;;5115678;28;20505;-64
2022/04/02 03:57:26;;;;;;;10.00;7.53;;;;;;;;;;5117200;28;20482;-64
2022/04/02 03:59:54;;;;;;;8.97;7.50;;;;;;;;;;5116946;28;20915;-64
2022/04/02 04:02:22;;;;;;;9.63;8.30;;;;;;;;;;5117748;28;20454;-64
2022/04/02 04:04:50;;;;;;;9.33;7.50;;;;;;;;;;5120413;28;20462;-64
2022/04/02 04:07:19;;;;;;;9.93;7.13;;;;;;;;;;5121273;28;20517;-64
2022/04/02 04:09:47;;;;;;;8.83;7.93;;;;;;;;;;5121388;28;20521;-64
2022/04/02 04:12:17;;;;;;;9.23;7.33;;;;;;;;;;5121507;28;20516;-64
2022/04/02 04:14:46;;;;;;;9.37;8.07;;;;;;;;;;5113516;28;20456;-64
2022/04/02 04:17:14;;;;;;;8.67;7.20;;;;;;;;;;5114720;28;21031;-64
2022/04/02 04:19:45;;;;;;;10.13;7.57;;;;;;;;;;5121486;28;20526;-64
2022/04/02 04:22:13;;;;;;;8.10;6.60;;;;;;;;;;5121498;28;20443;-64
2022/04/02 04:24:41;;;;;;;8.43;6.77;;;;;;;;;;5120997;27;20467;-65
2022/04/02 04:27:09;;;;;;;8.97;7.47;;;;;;;;;;5120411;28;20461;-64
2022/04/02 04:29:37;;;;;;;8.17;6.50;;;;;;;;;;5117898;28;20443;-64
2022/04/02 04:32:08;;;;;;;8.40;7.47;;;;;;;;;;5119277;27;20804;-64
2022/04/02 04:34:36;;;;;;;8.07;6.63;;;;;;;;;;5120220;28;20873;-64
2022/04/02 04:37:04;;;;;;;8.50;6.43;;;;;;;;;;5119972;28;20466;-65
2022/04/02 04:39:32;;;;;;;8.00;7.20;;;;;;;;;;5119753;28;20878;-64
2022/04/02 04:42:00;;;;;;;9.23;7.33;;;;;;;;;;5120162;28;20553;-64
2022/04/02 04:44:28;;;;;;;7.73;6.93;;;;;;;;;;5116502;28;21009;-64
2022/04/02 04:46:56;;;;;;;10.17;7.10;;;;;;;;;;5119479;28;20542;-64
2022/04/02 04:49:26;;;;;;;8.30;7.03;;;;;;;;;;5118181;28;20509;-64
2022/04/02 04:51:54;;;;;;;10.83;7.13;;;;;;;;;;5117422;28;20526;-64
2022/04/02 04:54:22;;;;;;;9.70;7.50;;;;;;;;;;5120095;28;20455;-65
2022/04/02 04:56:50;;;;;;;7.93;6.97;;;;;;;;;;5119903;28;20461;-64
2022/04/02 04:59:18;;;;;;;11.40;7.93;;;;;;;;;;5119473;28;20494;-64
2022/04/02 05:01:47;;;;;;;9.77;7.70;;;;;;;;;;5119717;28;20984;-64
2022/04/02 05:04:16;;;;;;;8.90;6.80;;;;;;;;;;5118777;28;20480;-64
2022/04/02 05:06:46;;;;;;;8.27;6.77;;;;;;;;;;5119859;28;20487;-64
2022/04/02 05:09:14;;;;;;;9.47;7.97;;;;;;;;;;5117440;28;20459;-64
2022/04/02 05:11:42;;;;;;;7.77;6.70;;;;;;;;;;5118276;28;20844;-64
2022/04/02 05:14:12;;;;;;;9.73;7.53;;;;;;;;;;5117905;28;20519;-64
2022/04/02 05:16:41;;;;;;;8.83;7.23;;;;;;;;;;5117339;28;20459;-64
2022/04/02 05:19:09;;;;;;;8.97;6.87;;;;;;;;;;5116179;28;20494;-64
2022/04/02 05:21:37;;;;;;;9.03;7.10;;;;;;;;;;5119681;28;20530;-64
2022/04/02 05:24:07;;;;;;;9.03;7.33;;;;;;;;;;5119111;28;20435;-64
2022/04/02 05:26:35;;;;;;;8.27;7.27;;;;;;;;;;5116057;28;20961;-64
2022/04/02 05:29:03;;;;;;;7.33;6.63;;;;;;;;;;5111794;28;20486;-64
2022/04/02 05:31:38;;;;;;;6.70;6.00;;;;;;;;;;5105126;28;20504;-64
2022/04/02 05:34:06;;;;;;;10.00;7.47;;;;;;;;;;5104484;28;20455;-64
2022/04/02 05:36:34;;;;;;;6.90;6.20;;;;;;;;;;5116720;28;20506;-64
2022/04/02 05:39:02;;;;;;;6.53;5.83;;;;;;;;;;5116453;28;20451;-64
2022/04/02 05:41:31;;;;;;;8.50;6.07;;;;;;;;;;5113313;28;20570;-64
2022/04/02 05:43:59;;;;;;;9.33;6.73;;;;;;;;;;5105456;28;20451;-64
2022/04/02 05:46:28;;;;;;;7.37;6.50;;;;;;;;;;5104780;28;20458;-64
2022/04/02 05:48:56;;;;;;;8.70;6.73;;;;;;;;;;5106163;28;20790;-64
2022/04/02 05:51:25;;;;;;;7.80;6.90;;;;;;;;;;5106957;28;20451;-64
2022/04/02 05:53:53;;;;;;;6.80;6.10;;;;;;;;;;5106897;28;20444;-64
2022/04/02 05:56:22;;;;;;;8.20;6.57;;;;;;;;;;5104622;28;20815;-64
2022/04/02 05:58:52;;;;;;;7.93;6.40;;;;;;;;;;5105980;28;20506;-64
2022/04/02 06:01:20;;;;;;;7.63;6.90;;;;;;;;;;5103559;28;20484;-64
2022/04/02 06:03:48;;;;;;;8.10;6.97;;;;;;;;;;5106396;28;20431;-65
2022/04/02 06:06:16;;;;;;;8.50;7.17;;;;;;;;;;5104982;28;20569;-65
2022/04/02 06:08:44;;;;;;;8.90;7.20;;;;;;;;;;5103400;28;20795;-64
2022/04/02 06:11:13;;;;;;;9.83;7.00;;;;;;;;;;5102845;28;20475;-64
2022/04/02 06:13:41;;;;;;;7.70;6.90;;;;;;;;;;5104165;28;20452;-64
2022/04/02 06:16:11;;;;;;;7.90;6.63;;;;;;;;;;5105178;28;20477;-64
2022/04/02 06:18:39;;;;;;;7.73;6.17;;;;;;;;;;5107397;28;20461;-64
2022/04/02 06:21:07;;;;;;;8.53;7.37;;;;;;;;;;5098902;28;20553;-64
2022/04/02 06:23:35;;;;;;;8.13;6.90;;;;;;;;;;5106993;28;20460;-64
2022/04/02 06:26:03;;;;;;;8.17;6.40;;;;;;;;;;5103895;28;20470;-64
2022/04/02 06:28:31;;;;;;;9.30;7.10;;;;;;;;;;5105958;28;20846;-64
2022/04/02 06:30:59;;;;;;;7.13;6.43;;;;;;;;;;5112842;28;20478;-64
2022/04/02 06:33:29;;;;;;;8.63;7.40;;;;;;;;;;5101923;28;20824;-64
2022/04/02 06:35:57;;;;;;;10.00;7.13;;;;;;;;;;5106321;28;20487;-64
2022/04/02 06:38:25;;;;;;;8.77;7.43;;;;;;;;;;5106477;28;20470;-64
2022/04/02 06:40:53;;;;;;;7.07;6.37;;;;;;;;;;5106799;28;20535;-64
2022/04/02 06:43:21;;;;;;;8.13;6.97;;;;;;;;;;5105359;28;20526;-64
2022/04/02 06:45:49;;;;;;;10.33;7.53;;;;;;;;;;5104137;28;20525;-64
2022/04/02 06:48:17;;;;;;;8.57;6.70;;;;;;;;;;5101872;27;20551;-64
2022/04/02 06:50:47;;;;;;;7.70;6.67;;;;;;;;;;5107716;28;20467;-69
2022/04/02 06:53:15;;;;;;;8.27;6.30;;;;;;;;;;5104876;28;20470;-66
2022/04/02 06:55:45;;;;;;;7.03;6.23;;;;;;;;;;5105229;28;20450;-66
2022/04/02 06:58:29;;;;;;;8.13;6.57;;;;;;;;;;5102430;28;20455;-67
2022/04/02 07:00:57;;;;;;;6.97;6.07;;;;;;;;;;5114376;28;20521;-67
2022/04/02 07:03:26;;;;;;;6.00;5.43;;;;;;;;;;5101814;28;20459;-66
2022/04/02 07:05:55;;;;;;;6.70;6.00;;;;;;;;;;5101382;28;20471;-66
2022/04/02 07:08:23;;;;;;;6.80;6.07;;;;;;;;;;5117467;28;20885;-67
2022/04/02 07:10:51;;;;;;;6.90;5.97;;;;;;;;;;5112000;28;20499;-67
2022/04/02 07:13:20;;;;;;;6.37;5.77;;;;;;;;;;5100287;28;20479;-67
2022/04/02 07:15:48;;;;;;;7.67;5.53;;;;;;;;;;5110199;28;20493;-66
2022/04/02 07:18:16;;;;;;;6.30;5.70;;;;;;;;;;5114482;28;20495;-67
2022/04/02 07:20:44;;;;;;;5.97;5.20;;;;;;;;;;5106401;28;20865;-66
2022/04/02 07:23:14;;;;;;;5.33;4.70;;;;;;;;;;5112498;28;20478;-66
2022/04/02 07:25:43;;;;;;;5.60;5.00;;;;;;;;;;5117242;28;20465;-66
2022/04/02 07:28:11;;;;;;;5.30;4.80;;;;;;;;;;5109623;28;20474;-66
2022/04/02 07:30:40;;;;;;;6.63;5.07;;;;;;;;;;5111919;28;20502;-67
2022/04/02 07:33:08;;;;;;;4.80;4.40;;;;;;;;;;5113702;28;20454;-66
2022/04/02 07:35:41;;;;;;;4.90;4.20;;;;;;;;;;5112477;28;20491;-66
2022/04/02 07:38:12;;;;;;;5.67;5.17;;;;;;;;;;5107034;28;20467;-67
2022/04/02 07:40:45;;;;;;;4.93;4.47;;;;;;;;;;5110996;28;20461;-65
2022/04/02 07:43:16;;;;;;;6.70;6.00;;;;;;;;;;5117194;28;20466;-65
2022/04/02 07:45:47;;;;;;;6.90;5.13;;;;;;;;;;5120673;28;20450;-65
2022/04/02 07:48:18;;;;;;;6.00;5.30;;;;;;;;;;5117513;28;20458;-65
2022/04/02 07:50:46;;;;;;;5.30;4.80;;;;;;;;;;5120797;28;20431;-66
2022/04/02 07:53:19;;;;;;;5.63;5.13;;;;;;;;;;5119874;28;20431;-66
2022/04/02 07:55:50;;;;;;;5.73;4.43;;;;;;;;;;5121451;28;20482;-66
2022/04/02 07:58:20;;;;;;;5.70;5.20;;;;;;;;;;5120536;28;20482;-67
2022/04/02 08:00:52;;;;;;;5.37;4.80;;;;;;;;;;5118682;28;20462;-68
2022/04/02 08:03:21;;;;;;;5.20;4.70;;;;;;;;;;5110299;27;20490;-69
2022/04/02 08:05:50;;;;;;;5.67;5.17;;;;;;;;;;5116693;28;20941;-68
2022/04/02 08:08:19;;;;;;;5.73;5.23;;;;;;;;;;5113897;28;20507;-69
2022/04/02 08:10:51;;;;;;;6.40;5.70;;;;;;;;;;5108668;28;20496;-68
2022/04/02 08:13:21;;;;;;;5.80;5.27;;;;;;;;;;5117142;28;20455;-69
2022/04/02 08:15:54;;;;;;;6.13;5.53;;;;;;;;;;5118717;28;20976;-68
2022/04/02 08:18:26;;;;;;;6.03;5.43;;;;;;;;;;5121056;28;20438;-68
2022/04/02 08:20:55;;;;;;;9.87;5.93;;;;;;;;;;5107000;28;20460;-69
2022/04/02 08:23:23;;;;;;;6.77;5.60;;;;;;;;;;5120729;28;20482;-69
2022/04/02 08:25:58;;;;;;;5.47;4.97;;;;;;;;;;5120851;28;20466;-69
2022/04/02 08:28:33;;;;;;;5.70;5.20;;;;;;;;;;5114506;28;20445;-69
2022/04/02 08:31:04;;;;;;;6.93;5.17;;;;;;;;;;5120886;28;20434;-69
2022/04/02 08:33:39;;;;;;;6.30;5.67;;;;;;;;;;5116326;28;20511;-69
2022/04/02 08:36:16;;;;;;;6.30;5.57;;;;;;;;;;5121355;28;20515;-68
2022/04/02 08:38:49;;;;;;;10.13;9.20;;;;;;;;;;5120698;28;20450;-68
2022/04/02 08:41:38;;;;;;;6.13;5.53;;;;;;;;;;5121268;28;20471;-69
2022/04/02 08:44:21;;;;;;;6.70;5.33;;;;;;;;;;5116219;28;20505;-69
2022/04/02 08:47:01;;;;;;;6.47;5.53;;;;;;;;;;5118411;28;20463;-68
2022/04/02 08:49:37;;;;;;;6.17;5.67;;;;;;;;;;5119615;28;20458;-67
2022/04/02 08:52:18;;;;;;;6.80;6.10;;;;;;;;;;5119230;28;20445;-66
2022/04/02 08:54:53;;;;;;;7.90;5.37;;;;;;;;;;5119079;28;20438;-67
2022/04/02 08:57:32;;;;;;;5.17;4.77;;;;;;;;;;5120599;27;20482;-69
2022/04/02 09:00:04;;;;;;;6.07;5.37;;;;;;;;;;5107101;28;20482;-68
2022/04/02 09:02:47;;;;;;;6.63;4.80;;;;;;;;;;5112998;28;20483;-70
2022/04/02 09:05:22;;;;;;;6.17;5.63;;;;;;;;;;5098727;28;20492;-69
2022/04/02 09:08:08;;;;;;;6.10;5.50;;;;;;;;;;5119083;28;20453;-68
2022/04/02 09:11:09;;;;;;;5.73;5.10;;;;;;;;;;5119306;28;20449;-70
2022/04/02 09:13:49;;;;;;;6.37;5.40;;;;;;;;;;5049613;28;20461;-70
2022/04/02 09:16:22;;;;;;;5.73;4.57;;;;;;;;;;5056591;28;20523;-69
2022/04/02 09:19:07;;;;;;;5.30;4.80;;;;;;;;;;5084086;28;20443;-70
2022/04/02 09:21:45;;;;;;;5.93;4.90;;;;;;;;;;5119555;28;20457;-69
2022/04/02 09:24:18;;;;;;;5.17;4.70;;;;;;;;;;5119305;28;20482;-69
2022/04/02 09:26:56;;;;;;;6.57;5.43;;;;;;;;;;5118421;28;20558;-68
2022/04/02 09:29:27;;;;;;;7.13;5.97;;;;;;;;;;5119726;28;20446;-68
2022/04/02 09:32:12;;;;;;;5.63;5.13;;;;;;;;;;5115090;28;20450;-69
2022/04/02 09:34:52;;;;;;;5.37;4.87;;;;;;;;;;5112927;28;20927;-69
2022/04/02 09:37:39;;;;;;;5.57;5.03;;;;;;;;;;5107940;28;20525;-69
2022/04/02 09:40:09;;;;;;;5.97;5.17;;;;;;;;;;5119272;28;20442;-69
2022/04/02 09:42:38;;;;;;;5.40;4.90;;;;;;;;;;5118735;28;20941;-68
2022/04/02 09:45:09;;;;;;;5.47;4.97;;;;;;;;;;5117882;28;20542;-69
2022/04/02 09:47:55;;;;;;;6.37;5.07;;;;;;;;;;5119776;28;20439;-69
2022/04/02 09:50:24;;;;;;;6.10;5.50;;;;;;;;;;5109414;28;20445;-69
2022/04/02 09:52:56;;;;;;;6.20;5.60;;;;;;;;;;5110550;28;20442;-69
2022/04/02 09:55:25;;;;;;;6.17;5.60;;;;;;;;;;5118945;28;20454;-68
2022/04/02 09:58:19;;;;;;;6.30;5.70;;;;;;;;;;5117165;28;20521;-69
2022/04/02 10:00:53;;;;;;;6.63;5.20;;;;;;;;;;5118367;28;20973;-69
2022/04/02 10:03:31;;;;;;;5.97;5.03;;;;;;;;;;5111582;28;20514;-70
2022/04/02 10:06:12;;;;;;;5.87;5.27;;;;;;;;;;5118991;28;20573;-70
2022/04/02 10:08:52;;;;;;;5.43;4.90;;;;;;;;;;5116459;28;20887;-70
2022/04/02 10:11:25;;;;;;;5.27;4.77;;;;;;;;;;5118381;28;20439;-69
2022/04/02 10:13:54;;;;;;;6.43;4.93;;;;;;;;;;5105933;28;20471;-68
2022/04/02 10:16:23;;;;;;;6.77;5.30;;;;;;;;;;5117980;28;20869;-71
2022/04/02 10:18:53;;;;;;;5.30;4.80;;;;;;;;;;5117518;28;20531;-70
2022/04/02 10:21:21;;;;;;;5.67;5.17;;;;;;;;;;5117883;28;20528;-70
2022/04/02 10:23:52;;;;;;;5.67;5.00;;;;;;;;;;5115643;28;20886;-70
2022/04/02 10:26:21;;;;;;;6.87;4.80;;;;;;;;;;5109383;28;20469;-69
2022/04/02 10:28:52;;;;;;;4.90;4.50;;;;;;;;;;5116499;28;20479;-69
2022/04/02 10:31:28;;;;;;;5.47;4.53;;;;;;;;;;5118538;28;20458;-69
2022/04/02 10:33:59;;;;;;;5.70;5.10;;;;;;;;;;5122238;27;20438;-69
2022/04/02 10:36:28;;;;;;;5.53;5.03;;;;;;;;;;5118891;28;20462;-67
2022/04/02 10:38:58;;;;;;;4.63;4.17;;;;;;;;;;5118733;28;20458;-67
2022/04/02 10:41:29;;;;;;;5.67;5.07;;;;;;;;;;5119201;28;20553;-68
2022/04/02 10:44:00;;;;;;;6.43;5.00;;;;;;;;;;5106033;28;20539;-66
2022/04/02 10:46:28;;;;;;;5.20;4.73;;;;;;;;;;5109391;28;20460;-69
2022/04/02 10:48:57;;;;;;;4.93;4.20;;;;;;;;;;5111960;28;20456;-67
2022/04/02 10:51:26;;;;;;;5.37;4.70;;;;;;;;;;5117467;28;20452;-67
2022/04/02 10:54:00;;;;;;;4.83;4.33;;;;;;;;;;5117915;28;20470;-68
2022/04/02 10:56:29;;;;;;;6.70;5.03;;;;;;;;;;5117973;28;20466;-67
2022/04/02 10:58:58;;;;;;;5.27;4.77;;;;;;;;;;5116992;28;20507;-67
2022/04/02 11:01:27;;;;;;;5.43;4.93;;;;;;;;;;5113363;28;20881;-67
2022/04/02 11:03:56;;;;;;;5.43;4.80;;;;;;;;;;5117823;28;20490;-68
2022/04/02 11:06:43;;;;;;;5.03;4.53;;;;;;;;;;5117310;28;20484;-68
2022/04/02 11:09:39;;;;;;;6.03;4.40;;;;;;;;;;5115459;28;20474;-66
2022/04/02 11:12:09;;;;;;;5.23;4.70;;;;;;;;;;5081883;28;20449;-67
2022/04/02 11:14:38;;;;;;;5.90;5.30;;;;;;;;;;5117550;28;20446;-68
2022/04/02 11:17:06;;;;;;;6.33;5.43;;;;;;;;;;5101975;28;20895;-74
2022/04/02 11:22:25;;;;;;;6.60;5.20;;;;;;;;;;5117321;28;20497;-72
2022/04/02 11:24:57;;;;;;;5.00;4.13;;;;;;;;;;5103905;28;20521;-73
2022/04/02 11:27:29;;;;;;;5.30;4.80;;;;;;;;;;5117192;28;20438;-73
2022/04/02 11:30:01;;;;;;;5.33;4.83;;;;;;;;;;5105932;28;20485;-72
2022/04/02 11:32:34;;;;;;;5.40;4.90;;;;;;;;;;5114674;28;20453;-73
2022/04/02 11:35:02;;;;;;;5.30;4.80;;;;;;;;;;5110255;28;20526;-74
2022/04/02 11:37:32;;;;;;;5.37;4.87;;;;;;;;;;5117275;28;20443;-74
2022/04/02 11:40:03;;;;;;;5.30;4.80;;;;;;;;;;5117469;28;20466;-73
2022/04/02 11:42:33;;;;;;;5.23;4.73;;;;;;;;;;5115382;28;20529;-72
2022/04/02 11:45:04;;;;;;;5.90;5.10;;;;;;;;;;5109093;28;20482;-73
2022/04/02 11:47:33;;;;;;;5.43;4.90;;;;;;;;;;5105760;28;21176;-73
2022/04/02 11:50:05;;;;;;;6.27;5.67;;;;;;;;;;5113482;28;20862;-72
2022/04/02 11:52:49;;;;;;;5.27;4.67;;;;;;;;;;5116509;28;20474;-75
2022/04/02 11:55:17;;;;;;;5.70;5.10;;;;;;;;;;5113586;28;20907;-69
2022/04/02 11:58:00;;;;;;;5.47;4.97;;;;;;;;;;5117430;28;20477;-70
2022/04/02 12:00:29;;;;;;;5.23;4.73;;;;;;;;;;5117008;28;20478;-70
2022/04/02 12:02:57;;;;;;;6.13;4.40;;;;;;;;;;5117495;28;20489;-70
2022/04/02 12:05:34;;;;;;;5.43;4.80;;;;;;;;;;5117260;28;20486;-70
2022/04/02 12:08:03;;;;;;;7.43;4.30;;;;;;;;;;5117582;28;20446;-70
2022/04/02 12:10:45;;;;;;;4.90;4.40;;;;;;;;;;5115755;28;20525;-70
2022/04/02 12:13:16;;;;;;;5.37;4.87;;;;;;;;;;5113708;28;20525;-70
2022/04/02 12:15:50;;;;;;;4.77;4.30;;;;;;;;;;5117267;28;20490;-70
2022/04/02 12:18:18;;;;;;;4.63;3.97;;;;;;;;;;5117450;28;20470;-70
2022/04/02 12:20:46;;;;;;;4.70;4.13;;;;;;;;;;5117651;28;20474;-70
2022/04/02 12:23:15;;;;;;;5.33;4.50;;;;;;;;;;5119599;28;20518;-70
2022/04/02 12:25:45;;;;;;;3.70;3.40;;;;;;;;;;5121066;28;20551;-70
2022/04/02 12:28:17;;;;;;;4.60;4.20;;;;;;;;;;5120765;28;21006;-71
2022/04/02 12:30:48;;;;;;;6.07;4.83;;;;;;;;;;5120495;28;20446;-68
2022/04/02 12:33:18;;;;;;;6.40;5.13;;;;;;;;;;5109339;28;21022;-68
2022/04/02 12:35:48;;;;;;;6.13;4.50;;;;;;;;;;5110400;28;20506;-67
2022/04/02 12:38:23;;;;;;;7.57;4.33;;;;;;;;;;5117777;28;20478;-68
2022/04/02 12:40:52;;;;;;;5.53;5.03;;;;;;;;;;5112916;28;20945;-67
2022/04/02 12:43:26;;;;;;;4.63;4.10;;;;;;;;;;5131664;27;20438;-68
2022/04/02 12:45:54;;;;;;;4.37;3.97;;;;;;;;;;5119437;28;20513;-68
2022/04/02 12:48:24;;;;;;;4.93;4.53;;;;;;;;;;5120283;28;20423;-69
2022/04/02 12:50:53;;;;;;;5.93;4.80;;;;;;;;;;5120067;28;20465;-71
2022/04/02 12:53:28;;;;;;;4.47;4.07;;;;;;;;;;5114671;28;20489;-68
2022/04/02 12:55:57;;;;;;;5.40;4.60;;;;;;;;;;5120997;28;20538;-68
2022/04/02 12:58:36;;;;;;;5.97;4.47;;;;;;;;;;5120889;28;20446;-68
2022/04/02 13:01:08;;;;;;;4.90;4.50;;;;;;;;;;5120868;28;20941;-72
2022/04/02 13:03:42;;;;;;;5.60;4.80;;;;;;;;;;5116311;28;20533;-69
2022/04/02 13:06:16;;;;;;;5.33;4.67;;;;;;;;;;5120229;28;20898;-69
2022/04/02 13:08:54;;;;;;;6.57;5.03;;;;;;;;;;5119342;28;20474;-69
2022/04/02 13:11:32;;;;;;;6.57;4.93;;;;;;;;;;5120299;28;20478;-68
2022/04/02 13:14:05;;;;;;;5.73;4.80;;;;;;;;;;5119672;28;20934;-68
2022/04/02 13:16:36;;;;;;;4.80;4.40;;;;;;;;;;5120228;28;20518;-69
2022/04/02 13:21:51;;;;;;;4.43;4.03;;;;;;;;;;5114109;28;20925;-70
2022/04/02 13:24:30;;;;;;;5.17;4.67;;;;;;;;;;5107425;28;20477;-69
2022/04/02 13:27:15;;;;;;;5.07;4.57;;;;;;;;;;5119990;28;20466;-68
2022/04/02 13:30:02;;;;;;;4.60;4.20;;;;;;;;;;5109902;28;20484;-70
2022/04/02 13:32:47;;;;;;;6.07;4.10;;;;;;;;;;5120102;28;20446;-68
2022/04/02 13:35:24;;;;;;;4.60;4.20;;;;;;;;;;5119825;28;20500;-68
2022/04/02 13:37:59;;;;;;;5.77;4.20;;;;;;;;;;5100925;28;20930;-69
2022/04/02 13:40:29;;;;;;;4.50;4.10;;;;;;;;;;5115466;28;20481;-70
2022/04/02 13:42:58;;;;;;;6.57;4.40;;;;;;;;;;5119649;28;20521;-69
2022/04/02 13:45:28;;;;;;;4.97;4.47;;;;;;;;;;5116897;28;20550;-70
2022/04/02 13:48:01;;;;;;;5.37;4.67;;;;;;;;;;5122631;28;20442;-69
2022/04/02 13:50:30;;;;;;;5.47;4.97;;;;;;;;;;5119289;28;20454;-73
2022/04/02 13:53:04;;;;;;;4.87;4.43;;;;;;;;;;5118018;28;20449;-72
2022/04/02 13:55:35;;;;;;;4.13;3.80;;;;;;;;;;5117201;28;20450;-72
2022/04/02 13:58:04;;;;;;;6.57;4.53;;;;;;;;;;5118692;28;20447;-73
2022/04/02 14:00:38;;;;;;;4.83;4.33;;;;;;;;;;5118760;28;20973;-72
2022/04/02 14:03:07;;;;;;;4.83;4.33;;;;;;;;;;5119119;28;20452;-73
2022/04/02 14:05:37;;;;;;;5.40;4.70;;;;;;;;;;5115682;28;20513;-72
2022/04/02 14:08:06;;;;;;;6.03;4.50;;;;;;;;;;5108734;28;20469;-72
2022/04/02 14:10:35;;;;;;;4.33;3.93;;;;;;;;;;5110662;28;20454;-72
2022/04/02 14:13:10;;;;;;;4.37;3.97;;;;;;;;;;5106142;28;20454;-73
2022/04/02 14:15:41;;;;;;;3.77;3.47;;;;;;;;;;5107913;27;20512;-72
2022/04/02 14:18:10;;;;;;;5.03;4.60;;;;;;;;;;5117107;28;20525;-72
2022/04/02 14:20:38;;;;;;;3.73;3.43;;;;;;;;;;5116780;28;20481;-72
2022/04/02 14:23:09;;;;;;;4.30;3.90;;;;;;;;;;5116896;28;20489;-73
2022/04/02 14:25:58;;;;;;;4.97;4.10;;;;;;;;;;5111551;28;20487;-72
2022/04/02 14:28:46;;;;;;;5.83;4.20;;;;;;;;;;5087395;28;20661;-72
2022/04/02 14:31:29;;;;;;;4.23;3.63;;;;;;;;;;5113366;28;20486;-73
2022/04/02 14:34:08;;;;;;;4.43;3.90;;;;;;;;;;5118365;28;20520;-73
2022/04/02 14:36:53;;;;;;;4.63;4.23;;;;;;;;;;5118112;28;20501;-71
2022/04/02 14:39:42;;;;;;;4.57;4.10;;;;;;;;;;5117774;28;21003;-72
2022/04/02 14:42:11;;;;;;;3.77;3.43;;;;;;;;;;5117622;28;20485;-72
2022/04/02 14:44:58;;;;;;;4.53;3.73;;;;;;;;;;5110043;28;20447;-72
2022/04/02 14:47:48;;;;;;;5.30;4.67;;;;;;;;;;5117985;28;20527;-72
2022/04/02 14:50:37;;;;;;;6.70;4.20;;;;;;;;;;5112607;28;20934;-73
2022/04/02 14:53:15;;;;;;;4.00;3.70;;;;;;;;;;5117645;28;20541;-72
2022/04/02 14:55:58;;;;;;;4.77;4.33;;;;;;;;;;5104374;28;20451;-73
2022/04/02 14:58:39;;;;;;;4.37;3.73;;;;;;;;;;5117539;28;20481;-70
2022/04/02 15:01:16;;;;;;;5.00;4.47;;;;;;;;;;5107486;28;20467;-71
2022/04/02 15:04:05;;;;;;;4.27;3.97;;;;;;;;;;5117515;28;20453;-71
2022/04/02 15:06:39;;;;;;;4.13;3.80;;;;;;;;;;5117593;28;20491;-72
2022/04/02 15:09:27;;;;;;;4.30;3.90;;;;;;;;;;5117540;28;20818;-72
2022/04/02 15:11:57;;;;;;;4.30;3.90;;;;;;;;;;5117259;28;20443;-72
2022/04/02 15:14:32;;;;;;;6.40;4.40;;;;;;;;;;5117480;28;20809;-73